Paton, Iowa
Current Conditions -  °F | °C
As of 1:15 PM on Monday 20 Oct 2014 (Local Time) from KBNW Reporting Station
Haze Haze  
Wind Chill: 66°   Ceiling: 200
Heat Index: 66°   Visibility: 0.25mi
Dew Point: 43°   Wind: 12mph
Humidity: 43%   Direction: 310°NW
Pressure: 30.01"   Gusts: 20mph
Location:  42.16°N, 94.26°W
Report Text: KBNW 201815Z AUTO 31010G17KT 1/4SM HZ VV002 19/06 A3001 RMK AO2
Loading
Personal Weather Stations






























Interactive Weather Map
Tropical Storm Tracking
New forecast layout! Learn more

10-Day Weather Forecast

Advertisements
Track Severe Weather on mobile